Tyrone, Pennsylvania
Current Conditions -  °F | °C
As of 5:35 AM on Thursday 23 Oct 2014 (Local Time) from KUNV Reporting Station
Overcast Overcast  
Wind Chill:   Ceiling: 1900
Heat Index:   Visibility: 10mi
Dew Point:   Wind: 7mph
Humidity: 78%   Direction: 340°NNW
Pressure: 29.98"   Gusts: NA
Location:  40.68°N, 78.24°W
Report Text: KUNV 230935Z AUTO 34006KT 10SM OVC019 09/05 A2998 RMK AO2 T00870050
Loading
Personal Weather Stations






























Interactive Weather Map
Tropical Storm Tracking
New forecast layout! Learn more

10-Day Weather Forecast

Advertisements
Track Severe Weather on mobile